createdAt,value
2022-11-12T00:02:30.614Z,28.25
2022-11-12T00:05:16.184Z,31.98
2022-11-12T00:08:01.759Z,31.50
2022-11-12T00:10:47.291Z,29.17
2022-11-12T00:13:32.682Z,23.42
2022-11-12T00:16:17.951Z,27.00
2022-11-12T00:19:03.457Z,31.70
2022-11-12T00:21:48.803Z,30.70
2022-11-12T00:24:34.045Z,31.50
2022-11-12T00:27:19.441Z,29.25
2022-11-12T00:30:05.817Z,21.90
2022-11-12T00:32:51.053Z,20.40
2022-11-12T00:35:36.485Z,23.02
2022-11-12T00:38:21.807Z,22.92
2022-11-12T00:41:07.060Z,20.45
2022-11-12T00:43:52.519Z,22.00
2022-11-12T00:46:37.756Z,24.08
2022-11-12T00:49:23.398Z,22.17
2022-11-12T00:52:08.498Z,22.73
2022-11-12T00:54:53.714Z,17.65
2022-11-12T00:57:39.112Z,21.23
2022-11-12T01:00:24.555Z,23.05
2022-11-12T01:03:09.962Z,21.88
2022-11-12T01:05:55.229Z,24.40
2022-11-12T01:08:40.545Z,22.10
2022-11-12T01:11:28.021Z,22.27
2022-11-12T01:14:13.175Z,24.70
2022-11-12T01:16:58.556Z,22.90
2022-11-12T01:19:43.879Z,25.75
2022-11-12T01:22:29.202Z,26.42
2022-11-12T01:25:14.651Z,21.35
2022-11-12T01:28:00.019Z,28.50
2022-11-12T01:30:45.326Z,21.63
2022-11-12T01:33:30.655Z,32.33
2022-11-12T01:36:17.396Z,23.58
2022-11-12T01:39:04.134Z,24.42
2022-11-12T01:41:49.157Z,23.90
2022-11-12T01:44:35.353Z,21.73
2022-11-12T01:47:23.718Z,21.77
2022-11-12T01:50:16.362Z,21.52
2022-11-12T01:53:08.822Z,20.73
2022-11-12T01:55:54.873Z,20.45
2022-11-12T01:58:41.005Z,19.67
2022-11-12T02:01:26.281Z,17.58
2022-11-12T02:04:11.778Z,22.70
2022-11-12T02:06:57.189Z,15.40
2022-11-12T02:09:42.842Z,23.27
2022-11-12T02:12:46.935Z,25.98
2022-11-12T02:15:32.175Z,24.17
2022-11-12T02:18:17.190Z,15.77
2022-11-12T02:21:08.978Z,22.13
2022-11-12T02:23:58.910Z,16.17
2022-11-12T02:26:51.259Z,17.52
2022-11-12T02:29:36.244Z,18.35
2022-11-12T02:32:21.626Z,19.95
2022-11-12T02:35:07.469Z,22.25
2022-11-12T02:37:52.757Z,20.42
2022-11-12T02:40:37.949Z,17.27
2022-11-12T02:43:23.345Z,17.70
2022-11-12T02:46:08.683Z,17.92
2022-11-12T02:48:53.734Z,15.98
2022-11-12T02:51:39.163Z,16.73
2022-11-12T02:54:24.485Z,14.15
2022-11-12T02:57:09.850Z,18.52
2022-11-12T02:59:55.251Z,18.38
2022-11-12T03:02:42.937Z,21.10
2022-11-12T03:05:30.438Z,22.67
2022-11-12T03:08:15.725Z,20.98
2022-11-12T03:11:10.066Z,23.52
2022-11-12T03:13:55.063Z,17.63
2022-11-12T03:16:40.407Z,18.20
2022-11-12T03:19:25.617Z,18.13
2022-11-12T03:22:11.017Z,20.58
2022-11-12T03:24:56.324Z,17.98
2022-11-12T03:27:41.683Z,21.98
2022-11-12T03:30:28.697Z,19.90
2022-11-12T03:33:15.249Z,17.92
2022-11-12T03:36:00.613Z,16.27
2022-11-12T03:38:45.946Z,18.20
2022-11-12T03:41:31.177Z,23.70
2022-11-12T03:44:16.540Z,16.00
2022-11-12T03:47:01.696Z,22.10
2022-11-12T03:49:47.110Z,17.55
2022-11-12T03:52:32.238Z,20.73
2022-11-12T03:55:19.732Z,16.98
2022-11-12T03:58:05.226Z,18.80
2022-11-12T04:00:50.495Z,19.65
2022-11-12T04:03:35.816Z,16.88
2022-11-12T04:06:39.831Z,19.10
2022-11-12T04:09:24.653Z,24.98
2022-11-12T04:12:28.447Z,16.05
2022-11-12T04:15:13.950Z,16.13
2022-11-12T04:18:17.945Z,24.63
2022-11-12T04:21:21.854Z,18.85
2022-11-12T04:24:07.006Z,20.67
2022-11-12T04:26:52.192Z,18.75
2022-11-12T04:29:55.994Z,20.00
2022-11-12T04:32:47.371Z,18.30
2022-11-12T04:35:32.764Z,17.23
2022-11-12T04:38:17.979Z,20.00
2022-11-12T04:41:21.714Z,17.10
2022-11-12T04:44:25.878Z,15.38
2022-11-12T04:47:11.831Z,16.98
2022-11-12T04:49:57.443Z,14.93
2022-11-12T04:52:42.659Z,15.82
2022-11-12T04:55:28.049Z,16.17
2022-11-12T04:58:13.339Z,16.15
2022-11-12T05:00:58.735Z,14.57
2022-11-12T05:03:44.225Z,16.30
2022-11-12T05:06:48.195Z,14.32
2022-11-12T05:09:33.507Z,15.13
2022-11-12T05:12:18.848Z,16.27
2022-11-12T05:15:05.035Z,17.00
2022-11-12T05:17:50.453Z,15.93
2022-11-12T05:20:38.847Z,15.70
2022-11-12T05:23:24.248Z,15.88
2022-11-12T05:26:09.576Z,15.25
2022-11-12T05:28:54.936Z,14.85
2022-11-12T05:31:40.277Z,16.80
2022-11-12T05:34:25.623Z,20.55
2022-11-12T05:37:12.330Z,14.15
2022-11-12T05:39:57.636Z,17.08
2022-11-12T05:42:42.928Z,18.90
2022-11-12T05:45:28.055Z,17.95
2022-11-12T05:48:13.331Z,13.52
2022-11-12T05:51:12.360Z,15.25
2022-11-12T05:53:58.637Z,17.65
2022-11-12T05:56:44.357Z,19.23
2022-11-12T05:59:29.682Z,20.70
2022-11-12T06:02:15.371Z,13.98
2022-11-12T06:05:00.547Z,16.45
2022-11-12T06:07:45.825Z,16.70
2022-11-12T06:10:32.220Z,15.70
2022-11-12T06:13:17.884Z,16.50
2022-11-12T06:16:02.934Z,15.35
2022-11-12T06:18:48.289Z,26.58
2022-11-12T06:21:33.747Z,18.40
2022-11-12T06:24:19.070Z,21.30
2022-11-12T06:27:04.451Z,21.92
2022-11-12T06:29:49.812Z,20.48
2022-11-12T06:32:35.500Z,16.77
2022-11-12T06:35:20.685Z,20.67
2022-11-12T06:38:05.846Z,28.40
2022-11-12T06:40:51.234Z,20.67
2022-11-12T06:43:36.984Z,20.17
2022-11-12T06:46:22.460Z,19.92
2022-11-12T06:49:07.953Z,27.23
2022-11-12T06:51:52.954Z,20.40
2022-11-12T06:54:38.262Z,18.65
2022-11-12T06:57:23.664Z,22.13
2022-11-12T07:00:11.749Z,19.80
2022-11-12T07:02:56.919Z,18.15
2022-11-12T07:05:42.097Z,21.15
2022-11-12T07:08:27.693Z,19.75
2022-11-12T07:11:13.528Z,22.05
2022-11-12T07:13:58.922Z,22.10
2022-11-12T07:16:44.247Z,24.15
2022-11-12T07:19:29.539Z,19.95
2022-11-12T07:22:15.054Z,19.58
2022-11-12T07:25:00.231Z,21.23
2022-11-12T07:27:45.562Z,26.27
2022-11-12T07:30:30.708Z,17.77
2022-11-12T07:33:15.976Z,21.88
2022-11-12T07:36:08.761Z,22.30
2022-11-12T07:38:54.616Z,27.35
2022-11-12T07:41:39.570Z,21.08
2022-11-12T07:44:25.179Z,32.13
2022-11-12T07:47:10.412Z,26.10
2022-11-12T07:49:55.800Z,29.02
2022-11-12T07:52:41.211Z,27.73
2022-11-12T07:55:26.446Z,29.35
2022-11-12T07:58:11.728Z,26.38
2022-11-12T08:00:57.028Z,23.83
2022-11-12T08:03:42.423Z,17.25
2022-11-12T08:06:28.805Z,17.65
2022-11-12T08:09:14.168Z,19.02
2022-11-12T08:11:59.579Z,22.60
2022-11-12T08:14:44.796Z,19.35
2022-11-12T08:17:30.269Z,20.65
2022-11-12T08:20:15.582Z,20.83
2022-11-12T08:23:01.004Z,23.73
2022-11-12T08:25:46.375Z,19.15
2022-11-12T08:28:33.306Z,17.25
2022-11-12T08:31:21.341Z,17.17
2022-11-12T08:34:12.883Z,16.50
2022-11-12T08:36:59.089Z,21.73
2022-11-12T08:39:44.355Z,21.10
2022-11-12T08:42:29.690Z,15.73
2022-11-12T08:45:15.048Z,15.60
2022-11-12T08:48:05.036Z,16.52
2022-11-12T08:50:50.407Z,18.55
2022-11-12T08:53:35.754Z,19.98
2022-11-12T08:56:21.453Z,17.75
2022-11-12T08:59:07.605Z,17.42
2022-11-12T09:01:53.056Z,19.38
2022-11-12T09:04:38.470Z,19.77
2022-11-12T09:10:29.569Z,19.85
2022-11-12T09:13:15.096Z,20.02
2022-11-12T09:16:05.176Z,22.02
2022-11-12T09:18:50.354Z,18.05
2022-11-12T09:21:35.634Z,19.50
2022-11-12T09:24:21.057Z,16.08
2022-11-12T09:27:06.347Z,18.80
2022-11-12T09:29:51.773Z,19.42
2022-11-12T09:32:37.155Z,18.35
2022-11-12T09:35:22.493Z,21.27
2022-11-12T09:38:07.916Z,19.42
2022-11-12T09:40:53.030Z,16.05
2022-11-12T09:43:43.640Z,16.40
2022-11-12T09:46:34.109Z,18.17
2022-11-12T09:49:25.262Z,20.10
2022-11-12T09:52:17.792Z,16.52
2022-11-12T09:55:12.166Z,15.80
2022-11-12T09:57:57.845Z,17.00
2022-11-12T10:00:52.845Z,16.98
2022-11-12T10:03:55.645Z,16.73
2022-11-12T10:06:49.626Z,17.48
2022-11-12T10:09:53.325Z,17.70
2022-11-12T10:12:57.519Z,16.38
2022-11-12T10:16:33.650Z,15.30
2022-11-12T10:19:24.709Z,16.17
2022-11-12T10:22:51.464Z,12.93
2022-11-12T10:25:38.940Z,17.33
2022-11-12T10:28:31.003Z,13.48
2022-11-12T10:31:20.969Z,20.35
2022-11-12T10:34:19.362Z,18.83
2022-11-12T10:37:17.510Z,18.23
2022-11-12T10:40:25.415Z,14.27
2022-11-12T10:43:16.518Z,14.45
2022-11-12T10:46:23.817Z,14.38
2022-11-12T10:49:15.129Z,14.05
2022-11-12T10:52:00.658Z,16.13
2022-11-12T10:54:48.573Z,14.77
2022-11-12T10:57:36.150Z,15.85
2022-11-12T11:00:21.983Z,19.13
2022-11-12T11:03:28.630Z,17.00
2022-11-12T11:06:16.663Z,12.85
2022-11-12T11:09:14.283Z,13.80
2022-11-12T11:11:59.596Z,9.75
2022-11-12T11:14:44.811Z,12.13
2022-11-12T11:17:30.313Z,11.38
2022-11-12T11:20:40.884Z,10.50
2022-11-12T11:23:53.889Z,12.75
2022-11-12T11:27:00.719Z,6.90
2022-11-12T11:30:08.946Z,10.32
2022-11-12T11:33:19.683Z,8.82
2022-11-12T11:36:12.811Z,10.77
2022-11-12T11:39:01.802Z,9.50
2022-11-12T11:42:05.796Z,9.45
2022-11-12T11:45:12.576Z,8.52
2022-11-12T11:48:09.014Z,9.60
2022-11-12T11:51:16.244Z,9.10
2022-11-12T11:54:07.208Z,7.15
2022-11-12T11:56:57.417Z,9.60
2022-11-12T12:00:04.534Z,7.80
2022-11-12T12:03:05.908Z,11.80
2022-11-12T12:06:20.117Z,9.05
2022-11-12T12:09:23.382Z,6.55
2022-11-12T12:12:11.586Z,8.85
2022-11-12T12:15:05.167Z,9.30
2022-11-12T12:18:13.146Z,10.23
2022-11-12T12:21:03.798Z,7.60
2022-11-12T12:24:06.833Z,13.77
2022-11-12T12:27:04.203Z,6.13
2022-11-12T12:29:55.098Z,9.02
2022-11-12T12:32:49.945Z,7.43
2022-11-12T12:35:41.107Z,8.57
2022-11-12T12:38:33.869Z,6.43
2022-11-12T12:41:57.296Z,7.45
2022-11-12T12:45:03.248Z,6.45
2022-11-12T12:47:49.290Z,4.60
2022-11-12T12:50:38.807Z,5.32
2022-11-12T12:53:27.798Z,6.50
2022-11-12T12:56:12.961Z,8.25
2022-11-12T12:59:03.581Z,9.18
2022-11-12T13:01:58.525Z,9.07
2022-11-12T13:04:51.813Z,9.43
2022-11-12T13:07:45.222Z,13.95
2022-11-12T13:10:36.552Z,9.75
2022-11-12T13:13:21.841Z,20.08
2022-11-12T13:16:07.852Z,11.05
2022-11-12T13:18:52.677Z,8.35
2022-11-12T13:21:37.926Z,53.60
2022-11-12T13:25:01.369Z,21.65
2022-11-12T13:27:47.084Z,15.73
2022-11-12T13:30:32.128Z,15.35
2022-11-12T13:33:31.517Z,11.52
2022-11-12T13:36:23.973Z,18.75
2022-11-12T13:39:13.772Z,8.70
2022-11-12T13:42:17.714Z,10.95
2022-11-12T13:45:02.817Z,10.18
2022-11-12T13:47:48.686Z,14.07
2022-11-12T13:50:40.364Z,9.23
2022-11-12T13:53:27.961Z,12.43
2022-11-12T13:56:24.161Z,9.25
2022-11-12T13:59:21.515Z,8.65
2022-11-12T14:02:24.191Z,12.98
2022-11-12T14:05:21.972Z,10.43
2022-11-12T14:08:26.195Z,8.98
2022-11-12T14:11:49.657Z,12.52
2022-11-12T14:14:51.347Z,13.80
2022-11-12T14:18:03.051Z,15.80
2022-11-12T14:20:48.972Z,11.82
2022-11-12T14:23:37.361Z,10.50
2022-11-12T14:26:42.797Z,11.63
2022-11-12T14:29:34.192Z,8.43
2022-11-12T14:32:20.852Z,7.68
2022-11-12T14:35:23.336Z,6.55
2022-11-12T14:38:20.630Z,8.13
2022-11-12T14:41:11.290Z,9.40
2022-11-12T14:44:12.186Z,7.57
2022-11-12T14:46:58.907Z,7.95
2022-11-12T14:49:46.909Z,7.97
2022-11-12T14:52:35.548Z,9.15
2022-11-12T14:55:29.661Z,9.73
2022-11-12T14:58:15.735Z,12.88
2022-11-12T15:01:47.805Z,16.50
2022-11-12T15:04:26.102Z,19.00
2022-11-12T15:07:35.878Z,11.43
2022-11-12T15:10:36.028Z,11.30
2022-11-12T15:13:24.573Z,12.43
2022-11-12T15:16:11.580Z,10.68
2022-11-12T15:19:18.843Z,11.65
2022-11-12T15:22:04.976Z,11.10
2022-11-12T15:24:50.460Z,10.65
2022-11-12T15:27:39.859Z,12.35
2022-11-12T15:30:28.167Z,10.23
2022-11-12T15:33:13.677Z,11.63
2022-11-12T15:36:00.360Z,14.32
2022-11-12T15:38:50.863Z,18.15
2022-11-12T15:41:35.901Z,16.05
2022-11-12T15:44:21.315Z,13.57
2022-11-12T15:47:15.667Z,13.63
2022-11-12T15:50:01.100Z,12.75
2022-11-12T15:52:46.440Z,13.93
2022-11-12T15:55:32.926Z,16.60
2022-11-12T15:58:21.781Z,13.55
2022-11-12T16:01:07.110Z,12.80
2022-11-12T16:03:52.678Z,19.63
2022-11-12T16:06:38.243Z,13.25
2022-11-12T16:09:23.612Z,18.45
2022-11-12T16:12:11.465Z,16.40
2022-11-12T16:14:56.902Z,20.10
2022-11-12T16:17:42.443Z,16.33
2022-11-12T16:20:35.672Z,16.90
2022-11-12T16:23:21.369Z,17.88
2022-11-12T16:26:08.717Z,15.88
2022-11-12T16:28:54.575Z,21.83
2022-11-12T16:31:41.896Z,18.33
2022-11-12T16:34:27.010Z,32.22
2022-11-12T16:37:13.091Z,28.05
2022-11-12T16:39:58.272Z,25.17
2022-11-12T16:42:47.303Z,33.25
2022-11-12T16:45:35.769Z,41.60
2022-11-12T16:48:22.418Z,41.88
2022-11-12T16:51:17.356Z,37.47
2022-11-12T16:54:02.488Z,33.80
2022-11-12T16:56:47.974Z,34.85
2022-11-12T16:59:33.138Z,36.78
2022-11-12T17:02:19.355Z,46.78
2022-11-12T17:05:08.234Z,49.85
2022-11-12T17:07:58.076Z,43.60
2022-11-12T17:10:44.598Z,43.63
2022-11-12T17:13:30.094Z,43.15
2022-11-12T17:16:15.829Z,49.30
2022-11-12T17:19:05.512Z,52.80
2022-11-12T17:21:50.546Z,57.95
2022-11-12T17:24:35.900Z,46.22
2022-11-12T17:27:21.529Z,41.95
2022-11-12T17:30:07.266Z,43.88
2022-11-12T17:32:52.310Z,58.50
2022-11-12T17:35:37.623Z,44.35
2022-11-12T17:38:23.133Z,53.42
2022-11-12T17:41:10.117Z,42.92
2022-11-12T17:43:58.013Z,48.38
2022-11-12T17:46:45.695Z,42.28
2022-11-12T17:49:32.978Z,41.53
2022-11-12T17:52:18.451Z,43.60
2022-11-12T17:55:04.060Z,33.90
2022-11-12T17:57:49.067Z,32.45
2022-11-12T18:00:35.627Z,39.53
2022-11-12T18:03:21.428Z,41.03
2022-11-12T18:06:07.448Z,37.38
2022-11-12T18:08:56.143Z,36.38
2022-11-12T18:11:50.120Z,30.30
2022-11-12T18:14:35.649Z,28.50
2022-11-12T18:17:20.976Z,29.85
2022-11-12T18:20:07.014Z,33.00
2022-11-12T18:22:52.161Z,28.85
2022-11-12T18:25:40.868Z,33.58
2022-11-12T18:28:26.190Z,30.08
2022-11-12T18:31:12.888Z,24.58
2022-11-12T18:33:58.060Z,31.80
2022-11-12T18:36:43.901Z,28.27
2022-11-12T18:39:29.354Z,31.95
2022-11-12T18:42:14.973Z,31.05
2022-11-12T18:45:00.235Z,26.55
2022-11-12T18:47:45.708Z,34.92
2022-11-12T18:50:31.043Z,41.45
2022-11-12T18:53:16.338Z,36.20
2022-11-12T18:56:07.877Z,37.13
2022-11-12T18:58:53.345Z,37.53
2022-11-12T19:01:43.887Z,33.80
2022-11-12T19:04:29.891Z,39.38
2022-11-12T19:07:15.033Z,37.28
2022-11-12T19:10:01.378Z,34.50
2022-11-12T19:12:46.454Z,36.03
2022-11-12T19:15:34.087Z,34.15
2022-11-12T19:18:19.462Z,33.03
2022-11-12T19:21:10.011Z,34.88
2022-11-12T19:23:58.265Z,38.78
2022-11-12T19:26:45.779Z,33.83
2022-11-12T19:29:33.764Z,37.47
2022-11-12T19:32:19.045Z,32.33
2022-11-12T19:35:04.779Z,33.38
2022-11-12T19:37:49.910Z,34.83
2022-11-12T19:40:35.383Z,34.17
2022-11-12T19:43:22.377Z,32.97
2022-11-12T19:46:11.330Z,48.35
2022-11-12T19:48:56.669Z,29.85
2022-11-12T19:51:42.606Z,32.13
2022-11-12T19:54:28.037Z,33.17
2022-11-12T19:57:13.563Z,33.08
2022-11-12T19:59:58.965Z,28.83
2022-11-12T20:02:44.210Z,31.63
2022-11-12T20:05:30.074Z,34.42
2022-11-12T20:08:15.507Z,29.95
2022-11-12T20:11:01.060Z,39.83
2022-11-12T20:13:46.209Z,36.58
2022-11-12T20:16:31.337Z,38.40
2022-11-12T20:19:16.796Z,30.88
2022-11-12T20:22:02.130Z,31.92
2022-11-12T20:24:47.579Z,39.78
2022-11-12T20:27:32.899Z,38.13
2022-11-12T20:30:18.315Z,30.63
2022-11-12T20:33:04.727Z,32.70
2022-11-12T20:35:49.698Z,35.55
2022-11-12T20:38:39.037Z,31.05
2022-11-12T20:41:25.730Z,37.15
2022-11-12T20:44:10.687Z,38.67
2022-11-12T20:46:56.063Z,39.85
2022-11-12T20:49:41.277Z,37.17
2022-11-12T20:52:26.737Z,36.90
2022-11-12T20:55:11.987Z,40.08
2022-11-12T20:57:57.411Z,47.47
2022-11-12T21:00:43.349Z,38.50
2022-11-12T21:03:28.706Z,36.53
2022-11-12T21:06:16.703Z,39.08
2022-11-12T21:09:03.086Z,30.70
2022-11-12T21:11:48.470Z,30.00
2022-11-12T21:14:34.003Z,35.45
2022-11-12T21:17:19.779Z,31.13
2022-11-12T21:20:05.265Z,31.35
2022-11-12T21:22:50.399Z,33.42
2022-11-12T21:25:39.217Z,27.85
2022-11-12T21:28:24.606Z,34.20
2022-11-12T21:31:12.868Z,39.10
2022-11-12T21:34:04.568Z,31.20
2022-11-12T21:36:49.775Z,28.90
2022-11-12T21:39:35.090Z,31.50
2022-11-12T21:42:20.517Z,37.38
2022-11-12T21:45:06.357Z,33.38
2022-11-12T21:47:51.887Z,31.50
2022-11-12T21:50:37.138Z,28.60
2022-11-12T21:53:22.523Z,38.13
2022-11-12T21:56:13.944Z,33.33
2022-11-12T21:59:00.356Z,33.15
2022-11-12T22:01:45.481Z,33.83
2022-11-12T22:04:30.980Z,30.42
2022-11-12T22:07:16.317Z,34.88
2022-11-12T22:10:01.717Z,36.13
2022-11-12T22:13:11.866Z,35.55
2022-11-12T22:15:52.804Z,29.25
2022-11-12T22:18:38.490Z,36.10
2022-11-12T22:21:36.828Z,28.50
2022-11-12T22:24:26.141Z,31.75
2022-11-12T22:27:11.335Z,32.28
2022-11-12T22:29:56.603Z,39.25
2022-11-12T22:32:41.970Z,35.00
2022-11-12T22:35:27.256Z,32.92
2022-11-12T22:38:14.734Z,33.30
2022-11-12T22:41:08.011Z,33.17
2022-11-12T22:43:58.442Z,34.38
2022-11-12T22:46:43.565Z,32.70
2022-11-12T22:49:28.822Z,34.17
2022-11-12T22:52:14.671Z,30.85
2022-11-12T22:55:00.770Z,35.40
2022-11-12T22:57:45.958Z,31.63
2022-11-12T23:00:32.036Z,32.25
2022-11-12T23:03:17.050Z,29.55
2022-11-12T23:06:06.084Z,30.38
2022-11-12T23:08:52.937Z,34.38
2022-11-12T23:11:38.419Z,32.92
2022-11-12T23:14:23.628Z,36.45
2022-11-12T23:17:08.924Z,30.73
2022-11-12T23:19:53.949Z,36.22
2022-11-12T23:22:39.349Z,32.13
2022-11-12T23:25:24.541Z,33.75
2022-11-12T23:28:10.063Z,32.35
2022-11-12T23:30:55.407Z,32.40
2022-11-12T23:33:46.967Z,33.97
2022-11-12T23:36:32.295Z,33.28
2022-11-12T23:39:17.475Z,33.35
2022-11-12T23:42:02.708Z,31.52
2022-11-12T23:44:48.201Z,36.75
2022-11-12T23:47:33.632Z,32.35
2022-11-12T23:50:19.017Z,33.10
2022-11-12T23:53:04.429Z,39.05
2022-11-12T23:55:49.656Z,36.58
2022-11-12T23:58:36.163Z,34.17
